Time;durP1;ratioP1;P1;durP2;ratioP2;P2;SDS_P1;SDS_P2;PMS_P1;PMS_P2;Temp;Humidity;BMP_temperature;BMP_pressure;BME280_temperature;BME280_humidity;BME280_pressure;Samples;Min_cycle;Max_cycle;Signal;HPM_P1;HPM_P2
2023/06/10 10:21:52;;;;;;;7.22;3.33;;;26.10;65.30;;;;;;5090143;28;20116;-66
2023/06/10 10:24:21;;;;;;;5.75;3.50;;;25.90;66.60;;;;;;5088680;28;20081;-69
2023/06/10 10:26:49;;;;;;;5.55;3.35;;;26.00;65.60;;;;;;5088970;28;20017;-69
2023/06/10 10:29:36;;;;;;;5.43;2.83;;;26.10;63.80;;;;;;5088264;28;20423;-68
2023/06/10 10:32:03;;;;;;;4.90;2.80;;;26.30;63.30;;;;;;5087962;28;20392;-70
2023/06/10 10:34:56;;;;;;;6.00;2.97;;;26.40;62.30;;;;;;5085595;28;20485;-68
2023/06/10 10:37:22;;;;;;;6.10;3.35;;;26.50;59.60;;;;;;5086629;28;20032;-70
2023/06/10 10:39:48;;;;;;;5.30;3.25;;;26.50;57.60;;;;;;5088651;28;20024;-70
2023/06/10 10:42:15;;;;;;;5.47;3.30;;;26.60;58.30;;;;;;5088521;28;20117;-69
2023/06/10 10:44:41;;;;;;;4.95;3.30;;;26.70;59.10;;;;;;5089127;28;20011;-70
2023/06/10 10:47:12;;;;;;;6.68;3.65;;;26.80;58.90;;;;;;5089226;28;20032;-74
2023/06/10 10:49:39;;;;;;;7.65;4.00;;;26.90;57.20;;;;;;5088575;28;20016;-74
2023/06/10 10:52:10;;;;;;;5.88;3.47;;;27.10;56.20;;;;;;5088577;28;20069;-74
2023/06/10 10:54:39;;;;;;;6.80;3.40;;;27.10;55.30;;;;;;5086993;28;20032;-74
2023/06/10 10:57:16;;;;;;;6.95;2.85;;;27.10;55.50;;;;;;5087386;28;20021;-69
2023/06/10 10:59:48;;;;;;;6.25;3.13;;;27.20;54.80;;;;;;5088811;28;20028;-69
2023/06/10 11:02:44;;;;;;;6.93;3.22;;;27.30;55.00;;;;;;5088335;28;20029;-69
2023/06/10 11:05:48;;;;;;;6.47;3.60;;;27.30;53.30;;;;;;5087734;28;20025;-74
2023/06/10 11:08:15;;;;;;;5.72;3.15;;;27.30;53.60;;;;;;5088812;28;20023;-69
2023/06/10 11:10:50;;;;;;;6.43;3.47;;;27.30;52.50;;;;;;5088079;28;20028;-73
2023/06/10 11:13:18;;;;;;;5.93;3.05;;;27.40;52.60;;;;;;5088615;28;20035;-74
2023/06/10 11:15:49;;;;;;;5.65;3.55;;;27.40;53.50;;;;;;5086799;28;20499;-74
2023/06/10 11:18:29;;;;;;;5.72;3.40;;;27.40;52.90;;;;;;5088543;28;20464;-73
2023/06/10 11:21:01;;;;;;;4.72;2.92;;;27.50;52.10;;;;;;5102249;28;20131;-73
2023/06/10 11:23:32;;;;;;;5.15;3.25;;;27.50;51.70;;;;;;5089686;28;20028;-74
2023/06/10 11:26:26;;;;;;;6.03;3.65;;;27.50;52.50;;;;;;5108800;28;20077;-74
2023/06/10 11:28:54;;;;;;;6.05;3.70;;;27.50;53.20;;;;;;5108633;28;20026;-73
2023/06/10 11:31:21;;;;;;;7.53;3.20;;;27.50;52.70;;;;;;5104180;28;20111;-73
2023/06/10 11:33:48;;;;;;;5.47;3.60;;;27.60;53.70;;;;;;5095127;28;20022;-74
2023/06/10 11:36:14;;;;;;;5.70;3.47;;;27.60;52.50;;;;;;5076730;28;20032;-70
2023/06/10 11:38:41;;;;;;;4.65;2.97;;;27.60;51.60;;;;;;5094201;28;20349;-70
2023/06/10 11:41:07;;;;;;;6.60;3.45;;;27.70;51.30;;;;;;5094931;28;20119;-69
2023/06/10 11:43:33;;;;;;;6.22;3.65;;;27.70;51.70;;;;;;5094724;28;20096;-71
2023/06/10 11:45:59;;;;;;;6.68;3.25;;;27.80;51.20;;;;;;5094540;28;20020;-73
2023/06/10 11:48:28;;;;;;;5.22;3.50;;;27.80;50.50;;;;;;5094659;28;20032;-73
2023/06/10 11:50:54;;;;;;;5.65;2.92;;;27.90;50.40;;;;;;5094206;28;20020;-72
2023/06/10 11:53:19;;;;;;;6.55;3.47;;;27.90;51.50;;;;;;5094672;28;20035;-72
2023/06/10 11:55:50;;;;;;;4.32;3.17;;;28.00;51.30;;;;;;5094697;28;20051;-70
2023/06/10 11:58:17;;;;;;;5.57;2.95;;;28.00;49.80;;;;;;5093881;28;20016;-70
2023/06/10 12:00:50;;;;;;;5.03;3.20;;;28.10;50.20;;;;;;5094396;28;20538;-69
2023/06/10 12:03:17;;;;;;;6.70;3.45;;;28.10;51.20;;;;;;5094501;28;20028;-71
2023/06/10 12:06:04;;;;;;;5.35;3.10;;;28.10;51.00;;;;;;5093846;28;20028;-76
2023/06/10 12:08:30;;;;;;;7.55;3.30;;;28.10;50.80;;;;;;5094269;28;20028;-69
2023/06/10 12:10:56;;;;;;;6.03;3.40;;;28.20;50.80;;;;;;5094469;28;20013;-76
2023/06/10 12:13:23;;;;;;;7.10;3.75;;;28.20;50.40;;;;;;5093755;28;20024;-75
2023/06/10 12:15:50;;;;;;;5.53;3.40;;;28.30;50.80;;;;;;5076070;28;20016;-75
2023/06/10 12:18:20;;;;;;;5.38;3.60;;;28.30;49.80;;;;;;5075722;28;20047;-73
2023/06/10 12:20:46;;;;;;;5.70;3.97;;;28.40;51.10;;;;;;5076949;28;20489;-73
2023/06/10 12:23:13;;;;;;;5.07;3.33;;;28.40;50.30;;;;;;5073229;28;20016;-71
2023/06/10 12:25:39;;;;;;;5.80;3.22;;;28.40;49.60;;;;;;5073654;28;20020;-71
2023/06/10 12:28:06;;;;;;;5.60;3.30;;;28.50;50.10;;;;;;5072657;28;20020;-69
2023/06/10 12:30:32;;;;;;;8.13;3.47;;;28.50;50.70;;;;;;5077336;28;20102;-74
2023/06/10 12:32:58;;;;;;;7.95;3.58;;;28.60;50.40;;;;;;5073974;28;20016;-75
2023/06/10 12:35:26;;;;;;;5.47;3.45;;;28.60;50.30;;;;;;5092362;28;20012;-70
2023/06/10 12:38:03;;;;;;;5.30;3.45;;;28.60;49.70;;;;;;5074881;28;20016;-68
2023/06/10 12:40:41;;;;;;;9.65;3.30;;;28.70;49.00;;;;;;5073365;28;20060;-70
2023/06/10 12:43:07;;;;;;;5.53;3.63;;;28.70;50.70;;;;;;5072547;28;20470;-70
2023/06/10 12:45:36;;;;;;;5.22;3.70;;;28.80;49.80;;;;;;5055653;28;20025;-70
2023/06/10 12:48:06;;;;;;;5.15;3.22;;;28.80;49.80;;;;;;5054747;28;20021;-67
2023/06/10 12:50:31;;;;;;;6.07;3.20;;;29.00;50.00;;;;;;5073333;28;20032;-67
2023/06/10 12:52:57;;;;;;;6.57;3.55;;;29.00;50.10;;;;;;5073205;28;20024;-71
2023/06/10 12:55:23;;;;;;;6.50;3.78;;;29.00;49.70;;;;;;5072706;28;20515;-73
2023/06/10 12:57:51;;;;;;;6.60;3.67;;;29.00;49.60;;;;;;5073247;28;20542;-74
2023/06/10 13:00:18;;;;;;;5.40;3.47;;;29.10;50.00;;;;;;5054980;28;20029;-68
2023/06/10 13:02:44;;;;;;;6.22;3.90;;;29.10;48.20;;;;;;5072402;28;20029;-70
2023/06/10 13:05:10;;;;;;;4.93;3.30;;;29.10;48.00;;;;;;5054391;28;20383;-69
2023/06/10 13:07:36;;;;;;;5.43;3.50;;;29.10;47.30;;;;;;5082185;28;20077;-68
2023/06/10 13:10:01;;;;;;;4.82;3.28;;;29.10;49.70;;;;;;5092408;28;20028;-73
2023/06/10 13:12:28;;;;;;;6.25;4.22;;;29.20;49.40;;;;;;5058468;28;20389;-74
2023/06/10 13:14:55;;;;;;;6.40;3.70;;;29.20;48.40;;;;;;5072520;28;20012;-72
2023/06/10 13:17:21;;;;;;;5.88;3.30;;;29.30;47.60;;;;;;5053773;28;20026;-74
2023/06/10 13:19:46;;;;;;;7.63;3.67;;;29.20;46.40;;;;;;5072042;28;20058;-69
2023/06/10 13:22:12;;;;;;;6.90;3.90;;;29.20;47.90;;;;;;5072566;28;20112;-69
2023/06/10 13:24:40;;;;;;;6.57;4.05;;;29.30;47.00;;;;;;5072327;28;20078;-69
2023/06/10 13:27:06;;;;;;;6.97;3.42;;;29.30;48.10;;;;;;5075127;28;20034;-70
2023/06/10 13:29:33;;;;;;;5.03;3.38;;;29.40;46.70;;;;;;5082103;28;20642;-71
2023/06/10 13:31:58;;;;;;;5.10;3.42;;;29.40;46.80;;;;;;5054551;28;20097;-71
2023/06/10 13:34:25;;;;;;;6.55;3.95;;;29.30;46.40;;;;;;5054952;28;20444;-71
2023/06/10 13:36:51;;;;;;;5.38;3.30;;;29.40;46.00;;;;;;5071875;28;20051;-71
2023/06/10 13:39:17;;;;;;;6.10;3.28;;;29.40;47.30;;;;;;5072517;28;20461;-70
2023/06/10 13:41:43;;;;;;;5.97;3.28;;;29.50;45.20;;;;;;5054491;28;20170;-71
2023/06/10 13:44:08;;;;;;;6.47;3.78;;;29.40;46.30;;;;;;5053897;28;20482;-71
2023/06/10 13:46:34;;;;;;;4.82;3.22;;;29.50;47.60;;;;;;5072591;28;20013;-71
2023/06/10 13:49:00;;;;;;;5.90;3.83;;;29.60;47.50;;;;;;5072367;28;20048;-71
2023/06/10 13:51:25;;;;;;;5.97;3.47;;;29.60;47.80;;;;;;5053675;28;20032;-74
2023/06/10 13:53:51;;;;;;;6.00;3.75;;;29.70;47.40;;;;;;5054433;28;20020;-71
2023/06/10 13:56:18;;;;;;;5.28;3.03;;;29.70;47.30;;;;;;5054123;28;20012;-71
2023/06/10 13:58:45;;;;;;;8.55;3.20;;;29.70;45.60;;;;;;5053613;28;20016;-70
2023/06/10 14:01:10;;;;;;;8.45;3.55;;;29.70;45.70;;;;;;5054193;28;20029;-70
2023/06/10 14:03:36;;;;;;;6.85;3.47;;;29.80;46.60;;;;;;5072405;28;20384;-70
2023/06/10 14:06:03;;;;;;;5.80;3.40;;;29.90;46.80;;;;;;5053556;28;20052;-69
2023/06/10 14:08:28;;;;;;;6.30;3.58;;;29.90;46.60;;;;;;5072111;28;20103;-70
2023/06/10 14:10:54;;;;;;;5.20;3.55;;;29.90;45.90;;;;;;5072262;28;20537;-70
2023/06/10 14:13:19;;;;;;;6.82;4.35;;;30.00;45.80;;;;;;5053536;28;20021;-69
2023/06/10 14:15:46;;;;;;;4.80;3.42;;;30.10;45.40;;;;;;5054391;28;20052;-70
2023/06/10 14:18:12;;;;;;;7.72;4.40;;;30.10;44.70;;;;;;5053978;28;20366;-70
2023/06/10 14:20:37;;;;;;;5.10;3.60;;;30.20;44.90;;;;;;5040827;28;20052;-70
2023/06/10 14:23:03;;;;;;;5.97;3.22;;;30.40;44.70;;;;;;5030752;28;20462;-71
2023/06/10 14:25:29;;;;;;;5.93;3.75;;;30.50;44.50;;;;;;5031346;28;20414;-73
2023/06/10 14:27:54;;;;;;;4.88;3.58;;;30.70;44.50;;;;;;5030869;28;20497;-71
2023/06/10 14:30:20;;;;;;;7.50;3.97;;;30.90;44.20;;;;;;5030605;28;20136;-70
2023/06/10 14:32:46;;;;;;;10.82;5.28;;;31.20;44.60;;;;;;5031428;28;20792;-70
2023/06/10 14:35:12;;;;;;;4.90;3.50;;;31.50;44.20;;;;;;5030750;28;20112;-71
2023/06/10 14:37:37;;;;;;;5.57;3.70;;;32.00;43.10;;;;;;5031559;28;20021;-77
2023/06/10 14:40:06;;;;;;;5.85;4.00;;;32.40;42.40;;;;;;5031093;28;20033;-76
2023/06/10 14:42:32;;;;;;;5.60;3.50;;;32.90;40.60;;;;;;5031746;28;20558;-74
2023/06/10 14:44:58;;;;;;;7.53;4.47;;;33.20;40.00;;;;;;5031869;28;20021;-69
2023/06/10 14:47:24;;;;;;;6.43;3.72;;;33.50;40.70;;;;;;5029716;28;20029;-69
2023/06/10 14:49:50;;;;;;;5.10;3.35;;;33.80;40.00;;;;;;5031551;28;20470;-76
2023/06/10 14:52:15;;;;;;;4.90;3.60;;;34.10;39.40;;;;;;5031798;28;20478;-76
2023/06/10 14:54:41;;;;;;;5.57;4.22;;;34.50;39.50;;;;;;5029837;28;20029;-78
2023/06/10 14:57:07;;;;;;;4.72;3.58;;;34.70;38.80;;;;;;5031586;28;20494;-76
2023/06/10 14:59:33;;;;;;;4.80;3.20;;;34.90;38.90;;;;;;5031492;28;20445;-76
2023/06/10 15:02:00;;;;;;;5.53;3.55;;;35.30;37.80;;;;;;5030964;28;20026;-69
2023/06/10 15:04:26;;;;;;;7.10;3.28;;;35.50;37.70;;;;;;5031652;28;20017;-69
2023/06/10 15:06:52;;;;;;;4.07;3.00;;;35.70;36.30;;;;;;5032772;28;20421;-76
2023/06/10 15:09:18;;;;;;;11.65;6.30;;;36.00;38.20;;;;;;5033134;28;20470;-76
2023/06/10 15:11:43;;;;;;;11.50;7.60;;;36.20;36.30;;;;;;5035184;28;20037;-73
2023/06/10 15:14:09;;;;;;;8.18;5.55;;;36.20;36.30;;;;;;5034185;28;20018;-72
2023/06/10 15:16:34;;;;;;;8.18;4.80;;;36.40;36.70;;;;;;5034429;28;20080;-77
2023/06/10 15:19:00;;;;;;;7.63;4.43;;;36.50;36.60;;;;;;5034165;28;20018;-70
2023/06/10 15:21:26;;;;;;;5.40;4.18;;;36.70;37.00;;;;;;5066074;28;20106;-69
2023/06/10 15:23:51;;;;;;;4.72;3.15;;;37.00;36.80;;;;;;5074362;28;20104;-74
2023/06/10 15:26:17;;;;;;;5.72;3.50;;;37.30;36.40;;;;;;5075030;28;20461;-75
2023/06/10 15:28:42;;;;;;;5.15;3.33;;;37.60;36.30;;;;;;5056260;28;20123;-76
2023/06/10 15:31:08;;;;;;;4.65;3.17;;;37.80;35.50;;;;;;5075015;28;20431;-76
2023/06/10 15:33:34;;;;;;;4.93;3.40;;;38.10;35.00;;;;;;5074651;28;20024;-77
2023/06/10 15:35:59;;;;;;;5.22;3.50;;;38.20;34.20;;;;;;5073736;28;20029;-70
2023/06/10 15:38:25;;;;;;;5.70;3.33;;;38.20;34.50;;;;;;5074531;28;20017;-75
2023/06/10 15:40:50;;;;;;;4.93;3.42;;;38.20;34.50;;;;;;5074631;28;20469;-78
2023/06/10 15:43:16;;;;;;;4.75;2.97;;;38.30;34.00;;;;;;5056038;28;20108;-79
2023/06/10 15:45:42;;;;;;;9.30;3.40;;;38.30;33.50;;;;;;5074603;28;20392;-77
2023/06/10 15:48:07;;;;;;;4.28;3.33;;;38.50;33.60;;;;;;5056752;28;20020;-77
2023/06/10 15:50:33;;;;;;;5.80;3.15;;;38.80;34.00;;;;;;5073807;28;20372;-77
2023/06/10 15:52:58;;;;;;;5.20;3.00;;;39.20;34.40;;;;;;5056625;28;20051;-73
2023/06/10 15:55:25;;;;;;;7.32;3.63;;;39.40;34.30;;;;;;5074557;28;20480;-77
2023/06/10 15:57:51;;;;;;;7.60;3.58;;;39.70;33.80;;;;;;5056580;28;20461;-77
2023/06/10 16:00:17;;;;;;;4.05;3.38;;;39.80;32.90;;;;;;5074620;28;20087;-79
2023/06/10 16:02:42;;;;;;;4.70;3.50;;;39.90;32.50;;;;;;5074925;28;20171;-78
2023/06/10 16:05:08;;;;;;;5.25;3.50;;;39.90;32.60;;;;;;5073893;28;20388;-77
2023/06/10 16:07:34;;;;;;;5.55;3.40;;;40.00;32.70;;;;;;5056702;28;20020;-79
2023/06/10 16:09:59;;;;;;;5.18;3.80;;;40.00;32.60;;;;;;5074312;28;20037;-71
2023/06/10 16:12:25;;;;;;;5.35;3.47;;;40.00;32.70;;;;;;5056008;28;20028;-79
2023/06/10 16:14:50;;;;;;;5.03;3.88;;;40.00;32.90;;;;;;5074624;28;20024;-78
2023/06/10 16:17:16;;;;;;;6.53;3.70;;;40.10;32.30;;;;;;5074355;28;20021;-80
2023/06/10 16:19:42;;;;;;;4.82;3.10;;;40.20;32.70;;;;;;5073496;28;20044;-77
2023/06/10 16:22:07;;;;;;;5.15;3.47;;;40.40;31.50;;;;;;5074265;28;20090;-75
2023/06/10 16:24:33;;;;;;;6.00;3.88;;;40.50;31.90;;;;;;5074177;28;20062;-77
2023/06/10 16:26:59;;;;;;;5.18;3.60;;;40.50;32.20;;;;;;5073609;28;20432;-72
2023/06/10 16:29:26;;;;;;;6.28;3.08;;;40.30;31.10;;;;;;5073840;28;20023;-76
2023/06/10 16:31:51;;;;;;;6.57;3.50;;;40.10;31.60;;;;;;5063964;28;20039;-73
2023/06/10 16:34:17;;;;;;;4.60;3.15;;;40.10;31.10;;;;;;5078836;28;20468;-76
2023/06/10 16:36:42;;;;;;;5.38;3.70;;;40.10;31.10;;;;;;5082206;28;20052;-76
2023/06/10 16:39:08;;;;;;;5.18;3.63;;;40.00;31.50;;;;;;5074837;28;20012;-71
2023/06/10 16:41:34;;;;;;;6.25;3.80;;;40.10;31.60;;;;;;5073781;28;20032;-70
2023/06/10 16:44:00;;;;;;;5.97;3.42;;;40.30;32.00;;;;;;5055841;28;20025;-73
2023/06/10 16:46:25;;;;;;;4.95;3.42;;;40.40;31.50;;;;;;5054986;28;20120;-69
2023/06/10 16:48:51;;;;;;;6.10;3.45;;;40.50;31.80;;;;;;5055615;28;20141;-71
2023/06/10 16:51:16;;;;;;;6.40;3.13;;;40.40;31.60;;;;;;5081289;28;20036;-80
2023/06/10 16:53:42;;;;;;;8.13;3.58;;;40.50;31.70;;;;;;5074846;28;20024;-69
2023/06/10 16:56:07;;;;;;;5.43;3.67;;;40.50;31.50;;;;;;5076198;28;20087;-69
2023/06/10 16:58:33;;;;;;;5.72;3.92;;;40.50;31.70;;;;;;5073656;28;20093;-68
2023/06/10 17:01:06;;;;;;;7.68;3.42;;;40.40;31.50;;;;;;5073089;28;20029;-76
2023/06/10 17:03:31;;;;;;;4.70;3.20;;;40.50;32.00;;;;;;5055661;28;20024;-76
2023/06/10 17:05:57;;;;;;;4.47;3.17;;;40.50;32.00;;;;;;5073502;28;20035;-73
2023/06/10 17:08:22;;;;;;;7.13;3.53;;;40.60;31.90;;;;;;5072957;28;20025;-74
2023/06/10 17:10:48;;;;;;;5.13;3.30;;;40.60;31.10;;;;;;5073496;28;20485;-69
2023/06/10 17:13:14;;;;;;;4.78;3.25;;;40.50;31.20;;;;;;5073295;28;20481;-69
2023/06/10 17:15:40;;;;;;;6.05;3.88;;;40.40;31.70;;;;;;5072805;28;20029;-73
2023/06/10 17:18:06;;;;;;;5.43;3.35;;;40.50;32.30;;;;;;5073310;28;20078;-83
2023/06/10 17:20:32;;;;;;;5.05;3.63;;;40.60;32.10;;;;;;5070502;28;20123;-70
2023/06/10 17:22:58;;;;;;;5.90;3.63;;;40.80;32.10;;;;;;5073065;28;20021;-70
2023/06/10 17:25:23;;;;;;;6.60;3.58;;;41.00;32.00;;;;;;5075765;28;20054;-70
2023/06/10 17:27:49;;;;;;;7.18;3.35;;;41.10;31.10;;;;;;5086285;28;20024;-69
2023/06/10 17:30:16;;;;;;;7.95;3.55;;;41.10;31.50;;;;;;5074293;28;20511;-70
2023/06/10 17:32:43;;;;;;;5.10;3.70;;;40.90;31.80;;;;;;5093072;28;20031;-69
2023/06/10 17:35:09;;;;;;;6.38;3.45;;;40.80;32.30;;;;;;5092286;28;20466;-75
2023/06/10 17:37:35;;;;;;;5.72;3.53;;;40.80;32.30;;;;;;5091813;28;20035;-69
2023/06/10 17:40:01;;;;;;;6.82;3.70;;;40.80;32.40;;;;;;5092601;28;20016;-70
2023/06/10 17:42:26;;;;;;;6.20;3.45;;;40.60;31.90;;;;;;5092077;28;20031;-70
2023/06/10 17:44:52;;;;;;;5.38;3.00;;;40.50;32.20;;;;;;5091661;28;20027;-68
2023/06/10 17:47:18;;;;;;;4.78;3.65;;;40.40;31.70;;;;;;5073259;28;20528;-67
2023/06/10 17:49:44;;;;;;;5.10;3.40;;;40.30;31.90;;;;;;5073589;28;20095;-67
2023/06/10 17:52:10;;;;;;;5.88;3.88;;;40.30;32.10;;;;;;5092932;28;20054;-70
2023/06/10 17:54:35;;;;;;;5.43;3.60;;;40.30;32.30;;;;;;5092059;28;20108;-68
2023/06/10 17:57:01;;;;;;;5.32;3.50;;;40.40;32.80;;;;;;5092709;28;20024;-68
2023/06/10 17:59:27;;;;;;;5.20;3.92;;;40.30;32.30;;;;;;5074414;28;20354;-77
2023/06/10 18:01:52;;;;;;;5.40;3.70;;;40.20;32.40;;;;;;5073929;28;20048;-67
2023/06/10 18:04:18;;;;;;;6.50;3.63;;;40.00;32.20;;;;;;5080306;28;20031;-71
2023/06/10 18:06:44;;;;;;;5.43;3.50;;;39.90;32.10;;;;;;5086026;28;20089;-73
2023/06/10 18:09:10;;;;;;;5.13;3.60;;;39.60;32.50;;;;;;5053625;28;20056;-69
2023/06/10 18:11:35;;;;;;;5.28;3.88;;;39.40;32.70;;;;;;5072294;28;20473;-67
2023/06/10 18:14:01;;;;;;;6.80;4.72;;;39.30;32.90;;;;;;5072138;28;20016;-67
2023/06/10 18:16:28;;;;;;;6.85;4.10;;;39.30;33.10;;;;;;5071404;28;20027;-66
2023/06/10 18:18:54;;;;;;;7.10;3.83;;;39.20;33.20;;;;;;5053992;28;20032;-67
2023/06/10 18:21:20;;;;;;;5.97;3.70;;;39.10;33.30;;;;;;5053916;28;20051;-66
2023/06/10 18:23:45;;;;;;;6.53;4.00;;;39.00;33.20;;;;;;5071472;28;20020;-78
2023/06/10 18:26:11;;;;;;;7.28;4.22;;;39.00;33.20;;;;;;5072153;28;20025;-70
2023/06/10 18:28:37;;;;;;;5.75;4.18;;;38.90;33.50;;;;;;5071921;28;20070;-66
2023/06/10 18:31:03;;;;;;;5.22;3.75;;;38.90;33.80;;;;;;5071382;28;20029;-66
2023/06/10 18:33:30;;;;;;;5.47;4.03;;;38.90;33.80;;;;;;5072102;28;20021;-66
2023/06/10 18:35:56;;;;;;;7.43;4.25;;;38.80;34.10;;;;;;5053943;28;20024;-67
2023/06/10 18:38:22;;;;;;;5.00;3.78;;;38.80;34.30;;;;;;5052826;28;20028;-60
2023/06/10 18:40:47;;;;;;;6.80;4.25;;;38.70;34.30;;;;;;5052450;28;20155;-66
2023/06/10 18:43:13;;;;;;;5.13;3.47;;;38.20;34.60;;;;;;5074787;28;20013;-62
2023/06/10 18:45:38;;;;;;;6.43;3.72;;;37.30;36.00;;;;;;5077506;28;20047;-61
2023/06/10 18:48:04;;;;;;;7.35;4.95;;;36.30;36.70;;;;;;5075399;28;20125;-61
2023/06/10 18:50:30;;;;;;;6.15;4.18;;;35.30;38.40;;;;;;5074488;28;20036;-62
2023/06/10 18:52:56;;;;;;;8.02;4.07;;;34.60;39.00;;;;;;5074616;28;20056;-62
2023/06/10 18:55:22;;;;;;;5.90;4.15;;;34.00;39.90;;;;;;5075158;28;20107;-61
2023/06/10 18:57:48;;;;;;;6.47;4.25;;;33.50;40.10;;;;;;5074945;28;20055;-71
2023/06/10 19:00:14;;;;;;;7.75;5.00;;;33.00;40.40;;;;;;5056233;28;20389;-61
2023/06/10 19:02:40;;;;;;;8.23;4.65;;;32.70;41.20;;;;;;5074837;28;20078;-61
2023/06/10 19:05:08;;;;;;;7.25;3.65;;;32.40;41.70;;;;;;5074454;28;20025;-61
2023/06/10 19:07:34;;;;;;;7.85;4.15;;;32.10;41.70;;;;;;5074678;28;20016;-65
2023/06/10 19:10:00;;;;;;;6.43;4.15;;;31.80;41.90;;;;;;5056659;28;20021;-64
2023/06/10 19:12:25;;;;;;;6.30;4.35;;;31.60;42.20;;;;;;5073756;28;20044;-61
2023/06/10 19:14:51;;;;;;;5.65;4.35;;;31.40;42.60;;;;;;5074850;28;20095;-69
2023/06/10 19:17:17;;;;;;;7.05;4.53;;;31.20;42.90;;;;;;5056956;28;20056;-74
2023/06/10 19:19:43;;;;;;;7.50;4.93;;;31.10;43.00;;;;;;5055491;28;20031;-65
2023/06/10 19:22:09;;;;;;;6.20;4.50;;;30.90;43.40;;;;;;5074363;28;20024;-65
2023/06/10 19:24:34;;;;;;;7.22;5.07;;;30.80;43.60;;;;;;5056453;28;20029;-63
2023/06/10 19:27:00;;;;;;;7.63;4.95;;;30.60;43.90;;;;;;5056056;28;20142;-68
2023/06/10 19:29:26;;;;;;;8.50;4.60;;;30.50;43.90;;;;;;5056062;28;20063;-74
2023/06/10 19:31:52;;;;;;;6.43;4.45;;;30.30;44.00;;;;;;5056604;28;20029;-63
2023/06/10 19:34:17;;;;;;;7.18;4.50;;;30.20;44.40;;;;;;5073920;28;20016;-63
2023/06/10 19:36:43;;;;;;;8.15;4.88;;;30.00;44.70;;;;;;5074266;28;20024;-62
2023/06/10 19:39:10;;;;;;;11.07;4.90;;;29.90;44.90;;;;;;5074311;28;20408;-60
2023/06/10 19:41:35;;;;;;;6.47;4.90;;;29.80;45.00;;;;;;5073534;28;20029;-61
2023/06/10 19:44:01;;;;;;;8.82;4.97;;;29.70;45.40;;;;;;5074460;28;20188;-61
2023/06/10 19:46:27;;;;;;;6.60;4.85;;;29.60;45.60;;;;;;5073937;28;20028;-75
2023/06/10 19:48:52;;;;;;;8.00;5.60;;;29.50;45.90;;;;;;5073501;28;20032;-73
2023/06/10 19:51:19;;;;;;;10.27;6.43;;;29.40;46.20;;;;;;5039528;28;20432;-60
2023/06/10 19:53:45;;;;;;;6.13;4.53;;;29.30;46.60;;;;;;5055456;28;20112;-60
2023/06/10 19:56:15;;;;;;;8.93;5.90;;;29.20;46.70;;;;;;5055317;28;20493;-62
2023/06/10 19:58:41;;;;;;;6.60;5.30;;;29.10;46.90;;;;;;5073605;28;20016;-61
2023/06/10 20:01:07;;;;;;;7.85;5.55;;;28.90;47.20;;;;;;5074029;28;20500;-61
2023/06/10 20:03:32;;;;;;;8.32;5.82;;;28.80;47.30;;;;;;5072838;28;20017;-61
2023/06/10 20:05:58;;;;;;;8.82;6.10;;;28.70;47.80;;;;;;5055963;28;20091;-61
2023/06/10 20:08:25;;;;;;;7.07;5.00;;;28.50;48.90;;;;;;5073010;28;20032;-61
2023/06/10 20:10:51;;;;;;;8.18;5.70;;;28.40;49.40;;;;;;5055848;28;20119;-61
2023/06/10 20:13:16;;;;;;;11.05;6.50;;;28.20;49.70;;;;;;5073447;28;20758;-61
2023/06/10 20:15:42;;;;;;;6.40;4.85;;;28.00;50.00;;;;;;5054373;28;20024;-61
2023/06/10 20:18:07;;;;;;;9.75;4.85;;;27.90;49.90;;;;;;5073656;28;20032;-61
2023/06/10 20:20:33;;;;;;;11.10;5.15;;;27.80;50.50;;;;;;5054880;28;20040;-71
2023/06/10 20:22:58;;;;;;;8.52;4.70;;;27.60;50.30;;;;;;5055050;28;20028;-61
2023/06/10 20:25:24;;;;;;;6.63;5.07;;;27.50;51.20;;;;;;5073245;28;20029;-61
2023/06/10 20:27:50;;;;;;;8.35;4.78;;;27.20;51.10;;;;;;5073521;28;20028;-60
2023/06/10 20:30:16;;;;;;;8.05;5.20;;;27.00;51.50;;;;;;5072641;28;20021;-61
2023/06/10 20:32:42;;;;;;;9.15;4.97;;;26.80;51.70;;;;;;5073170;28;20358;-61
2023/06/10 20:35:08;;;;;;;7.68;4.60;;;26.70;52.40;;;;;;5073637;28;20116;-60
2023/06/10 20:37:33;;;;;;;10.02;4.90;;;26.50;52.50;;;;;;5054330;28;20448;-76
2023/06/10 20:39:59;;;;;;;9.05;5.25;;;26.40;53.40;;;;;;5055266;28;20032;-62
2023/06/10 20:42:25;;;;;;;7.35;5.53;;;26.20;53.70;;;;;;5072974;28;20025;-61
2023/06/10 20:44:51;;;;;;;8.75;4.78;;;26.10;54.10;;;;;;5072652;28;20129;-62
2023/06/10 20:47:16;;;;;;;7.20;4.95;;;26.00;54.40;;;;;;5055056;28;20021;-61
2023/06/10 20:49:42;;;;;;;6.63;5.30;;;25.90;54.50;;;;;;5072615;28;20401;-62
2023/06/10 20:52:08;;;;;;;11.35;5.97;;;25.70;55.00;;;;;;5072842;28;20036;-61
2023/06/10 20:54:33;;;;;;;9.70;5.85;;;25.60;55.30;;;;;;5093053;28;20115;-75
2023/06/10 20:56:59;;;;;;;8.35;5.70;;;25.40;56.20;;;;;;5093175;28;20035;-63
2023/06/10 20:59:24;;;;;;;10.68;5.82;;;25.20;57.00;;;;;;5092068;28;20059;-60
2023/06/10 21:01:50;;;;;;;8.02;6.00;;;25.10;57.80;;;;;;5093250;28;20074;-66
2023/06/10 21:04:16;;;;;;;7.80;5.65;;;24.90;58.30;;;;;;5091891;28;20039;-61
2023/06/10 21:06:41;;;;;;;7.40;5.38;;;24.80;58.70;;;;;;5092421;28;20016;-63
2023/06/10 21:09:07;;;;;;;8.40;6.30;;;24.70;59.10;;;;;;5092327;28;20032;-60
2023/06/10 21:11:32;;;;;;;8.27;5.75;;;24.60;59.40;;;;;;5091974;28;20036;-75
2023/06/10 21:13:58;;;;;;;11.18;5.97;;;24.50;60.00;;;;;;5074620;28;20397;-71
2023/06/10 21:16:24;;;;;;;11.52;6.55;;;24.30;60.70;;;;;;5092600;28;20028;-64
2023/06/10 21:18:49;;;;;;;9.05;6.10;;;24.20;61.20;;;;;;5092173;28;20024;-62
2023/06/10 21:21:15;;;;;;;8.45;6.22;;;24.10;61.70;;;;;;5092614;28;20075;-63
2023/06/10 21:23:40;;;;;;;9.68;6.45;;;23.90;62.70;;;;;;5092337;28;20047;-60
2023/06/10 21:26:06;;;;;;;10.40;6.38;;;23.70;63.30;;;;;;5091889;28;20441;-71
2023/06/10 21:28:32;;;;;;;9.88;7.30;;;23.60;64.00;;;;;;5092114;28;20027;-75
2023/06/10 21:30:57;;;;;;;7.93;6.40;;;23.50;64.60;;;;;;5092610;28;20035;-64
2023/06/10 21:33:26;;;;;;;9.88;7.57;;;23.40;65.10;;;;;;5091754;28;20031;-64
2023/06/10 21:35:52;;;;;;;9.18;6.10;;;23.20;65.70;;;;;;5092514;28;20016;-64
2023/06/10 21:38:18;;;;;;;13.35;7.45;;;23.10;65.90;;;;;;5092636;28;20020;-60
2023/06/10 21:40:44;;;;;;;8.35;7.05;;;23.00;66.50;;;;;;5091460;28;20020;-65
2023/06/10 21:43:09;;;;;;;13.05;7.38;;;22.80;66.90;;;;;;5092467;28;20100;-75
2023/06/10 21:45:35;;;;;;;9.30;6.97;;;22.60;67.40;;;;;;5092664;28;20024;-74
2023/06/10 21:48:00;;;;;;;10.32;7.32;;;22.50;68.10;;;;;;5074957;28;20473;-61
2023/06/10 21:50:26;;;;;;;10.23;7.07;;;22.40;68.60;;;;;;5092551;28;20056;-61
2023/06/10 21:52:51;;;;;;;13.95;7.55;;;22.30;69.00;;;;;;5074239;28;20020;-61
2023/06/10 21:55:17;;;;;;;15.63;7.40;;;22.20;69.60;;;;;;5091562;28;20016;-61
2023/06/10 21:57:43;;;;;;;8.98;7.03;;;22.00;69.80;;;;;;5092071;28;20020;-60
2023/06/10 22:00:11;;;;;;;9.40;6.85;;;21.80;70.40;;;;;;5092053;28;20073;-75
2023/06/10 22:02:38;;;;;;;10.13;7.40;;;21.80;70.90;;;;;;5091285;28;20028;-75
2023/06/10 22:05:05;;;;;;;10.07;7.65;;;21.70;71.40;;;;;;5092144;28;20016;-75
2023/06/10 22:07:30;;;;;;;11.07;8.43;;;21.60;71.90;;;;;;5091685;28;20031;-61
2023/06/10 22:09:57;;;;;;;9.60;7.57;;;21.50;72.40;;;;;;5091452;28;20016;-62
2023/06/10 22:12:22;;;;;;;10.13;7.72;;;21.50;72.70;;;;;;5092076;28;20042;-62
2023/06/10 22:14:48;;;;;;;10.10;7.90;;;21.40;73.00;;;;;;5091454;28;20534;-60
2023/06/10 22:17:14;;;;;;;9.60;7.72;;;21.30;73.10;;;;;;5091406;28;20539;-76
2023/06/10 22:19:41;;;;;;;12.32;8.23;;;21.30;73.70;;;;;;5091274;28;20107;-77
2023/06/10 22:22:10;;;;;;;11.80;8.35;;;21.20;74.40;;;;;;5091420;28;20020;-75
2023/06/10 22:24:36;;;;;;;11.80;8.43;;;21.10;74.80;;;;;;5073327;28;20017;-63
2023/06/10 22:27:02;;;;;;;12.95;8.65;;;21.10;75.30;;;;;;5091888;28;20024;-61
2023/06/10 22:29:28;;;;;;;10.82;8.27;;;21.00;75.90;;;;;;5090759;28;20057;-61
2023/06/10 22:31:55;;;;;;;9.20;7.70;;;20.90;76.10;;;;;;5073617;28;20496;-61
2023/06/10 22:34:20;;;;;;;11.02;8.73;;;20.90;76.50;;;;;;5091724;28;20043;-72
2023/06/10 22:36:46;;;;;;;11.27;8.32;;;20.80;76.90;;;;;;5091184;28;20138;-75
2023/06/10 22:39:12;;;;;;;12.07;9.05;;;20.70;77.30;;;;;;5091839;28;20544;-75
2023/06/10 22:41:38;;;;;;;10.48;8.02;;;20.70;77.70;;;;;;5091444;28;20099;-61
2023/06/10 22:44:04;;;;;;;11.70;8.52;;;20.60;78.10;;;;;;5091126;28;20016;-61
2023/06/10 22:46:30;;;;;;;12.40;8.18;;;20.50;78.80;;;;;;5091307;28;20038;-61
2023/06/10 22:48:55;;;;;;;10.55;8.43;;;20.40;78.90;;;;;;5091549;28;20020;-61
2023/06/10 22:51:21;;;;;;;17.60;9.38;;;20.40;79.30;;;;;;5090791;28;20492;-73
2023/06/10 22:53:47;;;;;;;10.20;7.85;;;20.30;79.70;;;;;;5091533;28;20472;-75
2023/06/10 22:56:13;;;;;;;11.48;9.07;;;20.20;80.30;;;;;;5091639;28;20377;-75
2023/06/10 22:58:38;;;;;;;9.90;7.97;;;20.20;80.70;;;;;;5090453;28;20031;-61
2023/06/10 23:01:04;;;;;;;11.52;8.77;;;20.10;81.50;;;;;;5091665;28;20039;-61
2023/06/10 23:03:29;;;;;;;11.90;8.50;;;20.00;82.60;;;;;;5073050;28;20081;-61